Time;durP1;ratioP1;P1;durP2;ratioP2;P2;SDS_P1;SDS_P2;PMS_P1;PMS_P2;Temp;Humidity;BMP_temperature;BMP_pressure;BME280_temperature;BME280_humidity;BME280_pressure;Samples;Min_cycle;Max_cycle;Signal;HPM_P1;HPM_P2
2022/10/05 00:01:51;;;;;;;6.63;3.58;;;9.80;67.90;;;;;;5076151;28;20013;-59
2022/10/05 00:04:27;;;;;;;9.13;3.53;;;9.80;68.10;;;;;;5108488;28;20042;-59
2022/10/05 00:07:13;;;;;;;8.57;3.97;;;9.80;68.00;;;;;;5087435;28;20127;-59
2022/10/05 00:09:39;;;;;;;7.68;3.10;;;9.70;68.60;;;;;;5068328;28;20032;-61
2022/10/05 00:12:19;;;;;;;8.02;3.47;;;9.70;68.10;;;;;;5095716;28;20027;-61
2022/10/05 00:14:47;;;;;;;4.50;2.92;;;9.70;68.90;;;;;;5108028;28;20086;-60
2022/10/05 00:17:18;;;;;;;6.10;3.47;;;9.70;68.30;;;;;;5086258;28;20414;-60
2022/10/05 00:19:45;;;;;;;5.13;2.95;;;9.70;68.30;;;;;;5068219;28;20107;-60
2022/10/05 00:22:27;;;;;;;4.55;3.25;;;9.60;68.30;;;;;;5101468;28;20021;-58
2022/10/05 00:24:57;;;;;;;6.78;3.30;;;9.60;69.00;;;;;;5068047;28;20464;-60
2022/10/05 00:27:31;;;;;;;9.82;3.33;;;9.60;68.40;;;;;;5079760;28;20116;-60
2022/10/05 00:30:00;;;;;;;6.68;3.17;;;9.60;68.50;;;;;;5068076;28;20475;-62
2022/10/05 00:32:27;;;;;;;5.43;3.42;;;9.60;68.20;;;;;;5093732;28;20128;-61
2022/10/05 00:34:53;;;;;;;4.28;3.22;;;9.60;68.10;;;;;;5107756;28;20047;-61
2022/10/05 00:37:19;;;;;;;9.02;3.60;;;9.50;68.00;;;;;;5086091;28;20039;-59
2022/10/05 00:39:45;;;;;;;10.38;3.45;;;9.50;68.00;;;;;;5107416;28;20106;-61
2022/10/05 00:42:43;;;;;;;6.72;3.40;;;9.50;68.20;;;;;;5087568;28;20017;-60
2022/10/05 00:45:33;;;;;;;6.93;2.85;;;9.50;68.80;;;;;;5067945;28;20021;-58
2022/10/05 00:48:22;;;;;;;4.13;2.85;;;9.50;68.40;;;;;;5063425;28;20045;-61
2022/10/05 00:51:10;;;;;;;3.00;2.70;;;9.50;68.80;;;;;;5102620;28;20535;-59
2022/10/05 00:54:13;;;;;;;4.18;2.92;;;9.50;68.80;;;;;;5068005;28;20036;-60
2022/10/05 00:56:52;;;;;;;3.45;2.72;;;9.40;69.40;;;;;;5105545;28;20039;-59
2022/10/05 00:59:24;;;;;;;3.50;2.92;;;9.50;69.00;;;;;;5098963;28;20028;-60
2022/10/05 01:02:06;;;;;;;6.55;2.92;;;9.40;68.90;;;;;;5091009;28;20020;-60
2022/10/05 01:05:07;;;;;;;5.30;3.10;;;9.50;70.20;;;;;;5098630;28;20047;-59
2022/10/05 01:07:49;;;;;;;4.07;3.03;;;9.50;69.80;;;;;;5077840;28;20498;-60
2022/10/05 01:10:26;;;;;;;4.65;3.28;;;9.50;70.00;;;;;;5087794;28;20457;-60
2022/10/05 01:13:13;;;;;;;6.00;2.92;;;9.50;69.50;;;;;;5086358;28;20070;-59
2022/10/05 01:15:49;;;;;;;5.68;3.03;;;9.60;69.80;;;;;;5067191;28;20041;-60
2022/10/05 01:18:38;;;;;;;11.05;3.30;;;9.60;70.00;;;;;;5066335;28;20041;-61
2022/10/05 01:21:16;;;;;;;11.00;3.67;;;9.60;71.00;;;;;;5066904;28;20104;-60
2022/10/05 01:24:06;;;;;;;4.72;2.70;;;9.60;70.20;;;;;;5067123;28;20490;-60
2022/10/05 01:27:23;;;;;;;4.97;2.97;;;9.70;70.60;;;;;;5089813;28;20036;-60
2022/10/05 01:29:57;;;;;;;2.92;2.58;;;9.70;71.10;;;;;;5078192;28;20036;-61
2022/10/05 01:32:38;;;;;;;5.22;3.15;;;9.80;70.10;;;;;;5076682;28;20028;-60
2022/10/05 01:35:12;;;;;;;10.00;3.45;;;9.80;70.60;;;;;;5082277;28;20048;-61
2022/10/05 01:38:02;;;;;;;6.65;3.70;;;9.80;70.40;;;;;;5092564;28;20080;-61
2022/10/05 01:40:49;;;;;;;8.05;3.83;;;9.80;71.20;;;;;;5066722;28;20437;-60
2022/10/05 01:43:38;;;;;;;10.90;4.25;;;9.90;70.50;;;;;;5081993;28;20039;-59
2022/10/05 01:46:22;;;;;;;10.77;4.40;;;9.90;71.70;;;;;;5086200;28;20039;-59
2022/10/05 01:49:03;;;;;;;16.30;4.45;;;9.90;71.30;;;;;;5079177;28;20027;-60
2022/10/05 01:51:48;;;;;;;12.23;3.78;;;9.90;71.20;;;;;;5083962;28;20055;-59
2022/10/05 01:54:38;;;;;;;20.23;4.28;;;9.90;70.70;;;;;;5066548;28;20032;-60
2022/10/05 01:57:28;;;;;;;10.75;3.90;;;10.00;71.60;;;;;;5072803;28;20037;-60
2022/10/05 02:00:03;;;;;;;12.95;3.80;;;10.00;71.90;;;;;;5066460;28;20071;-59
2022/10/05 02:02:53;;;;;;;16.67;4.70;;;10.00;71.30;;;;;;5094386;28;20024;-60
2022/10/05 02:05:27;;;;;;;16.25;3.45;;;10.00;71.30;;;;;;5058921;28;20068;-59
2022/10/05 02:07:56;;;;;;;;;;;10.10;71.30;;;;;;5064867;28;20033;-61
2022/10/05 02:10:35;;;;;;;9.63;3.45;;;10.10;72.20;;;;;;5105913;28;20456;-60
2022/10/05 02:13:25;;;;;;;24.58;4.15;;;10.10;71.00;;;;;;5080283;28;20029;-59
2022/10/05 02:15:56;;;;;;;10.10;3.38;;;10.10;72.50;;;;;;5066160;28;20044;-60
2022/10/05 02:18:46;;;;;;;28.83;4.70;;;10.10;71.50;;;;;;5082894;28;20104;-60
2022/10/05 02:21:12;;;;;;;14.75;4.25;;;10.20;72.60;;;;;;5065738;28;20030;-60
2022/10/05 02:23:40;;;;;;;13.65;4.95;;;10.20;71.50;;;;;;5085034;28;20036;-59
2022/10/05 02:26:09;;;;;;;12.77;4.43;;;10.20;71.90;;;;;;5087305;28;20028;-59
2022/10/05 02:28:56;;;;;;;25.38;4.68;;;10.20;72.20;;;;;;5085631;28;20097;-59
2022/10/05 02:31:29;;;;;;;23.90;4.30;;;10.20;72.10;;;;;;5065558;28;20025;-62
2022/10/05 02:34:21;;;;;;;23.23;4.55;;;10.30;72.40;;;;;;5084841;28;20020;-61
2022/10/05 02:37:05;;;;;;;13.18;3.53;;;10.30;73.30;;;;;;5104146;28;20024;-60
2022/10/05 02:40:12;;;;;;;29.88;4.43;;;10.30;72.70;;;;;;5090887;28;20035;-60
2022/10/05 02:42:55;;;;;;;9.75;4.40;;;10.30;73.30;;;;;;5075719;28;20043;-61
2022/10/05 02:45:45;;;;;;;12.73;4.28;;;10.40;72.70;;;;;;5065868;28;20029;-59
2022/10/05 02:48:30;;;;;;;7.20;3.17;;;10.40;73.00;;;;;;5064518;28;20075;-62
2022/10/05 02:51:06;;;;;;;9.02;4.40;;;10.40;72.80;;;;;;5077858;28;20052;-60
2022/10/05 02:54:00;;;;;;;16.98;4.80;;;10.40;72.40;;;;;;5103739;28;20036;-62
2022/10/05 02:56:31;;;;;;;8.25;4.15;;;10.40;72.60;;;;;;5065463;28;20051;-61
2022/10/05 02:59:12;;;;;;;11.13;4.78;;;10.40;71.90;;;;;;5108370;28;20059;-60
2022/10/05 03:01:51;;;;;;;13.70;4.63;;;10.50;72.80;;;;;;5071360;28;20512;-59
2022/10/05 03:04:41;;;;;;;11.93;4.47;;;10.50;72.80;;;;;;5104880;28;20029;-59
2022/10/05 03:07:13;;;;;;;14.82;4.95;;;10.50;72.70;;;;;;5074584;28;20035;-60
2022/10/05 03:09:46;;;;;;;12.95;4.05;;;10.50;72.30;;;;;;5089623;28;20021;-60
2022/10/05 03:12:33;;;;;;;12.18;4.25;;;10.50;72.50;;;;;;5081496;28;20039;-59
2022/10/05 03:15:18;;;;;;;10.85;4.50;;;10.50;72.90;;;;;;5110022;28;20490;-61
2022/10/05 03:18:04;;;;;;;16.52;3.85;;;10.60;72.90;;;;;;5083469;28;20106;-59
2022/10/05 03:20:32;;;;;;;12.55;3.88;;;10.60;73.20;;;;;;5069369;28;20045;-59
2022/10/05 03:23:00;;;;;;;32.55;3.58;;;10.60;72.20;;;;;;5087018;28;20032;-59
2022/10/05 03:25:36;;;;;;;8.55;3.90;;;10.60;72.40;;;;;;5109390;28;20032;-60
2022/10/05 03:28:43;;;;;;;20.75;4.20;;;10.60;72.70;;;;;;5081412;28;20036;-61
2022/10/05 03:31:58;;;;;;;11.20;3.95;;;10.60;73.40;;;;;;5026952;28;20045;-60
2022/10/05 03:34:26;;;;;;;5.75;3.08;;;10.60;73.30;;;;;;4968756;28;20120;-59
2022/10/05 03:37:02;;;;;;;6.70;3.78;;;10.60;71.90;;;;;;4967396;29;20584;-60
2022/10/05 03:39:52;;;;;;;13.07;3.78;;;10.60;72.30;;;;;;4949286;29;20075;-59
2022/10/05 03:42:30;;;;;;;7.82;3.38;;;10.60;73.10;;;;;;4952839;28;20102;-60
2022/10/05 03:45:01;;;;;;;9.55;3.20;;;10.60;72.20;;;;;;4968444;29;20051;-62
2022/10/05 03:47:52;;;;;;;20.77;3.58;;;10.60;72.00;;;;;;4967542;29;20054;-59
2022/10/05 03:50:35;;;;;;;5.82;3.08;;;10.60;72.50;;;;;;4975476;28;20046;-59
2022/10/05 03:53:23;;;;;;;19.83;3.28;;;10.60;72.60;;;;;;4979245;29;20015;-59
2022/10/05 03:56:15;;;;;;;6.65;3.10;;;10.60;73.10;;;;;;4979437;29;20051;-60
2022/10/05 03:58:59;;;;;;;4.82;3.03;;;10.60;72.40;;;;;;4970705;29;20043;-59
2022/10/05 04:02:05;;;;;;;10.82;3.30;;;10.50;72.30;;;;;;4968403;29;20035;-59
2022/10/05 04:04:39;;;;;;;21.20;4.00;;;10.60;73.40;;;;;;4938871;29;20047;-61
2022/10/05 04:07:13;;;;;;;8.25;3.40;;;10.60;72.30;;;;;;4942852;28;20078;-60
2022/10/05 04:09:45;;;;;;;5.63;3.25;;;10.50;72.10;;;;;;5066040;28;20036;-60
2022/10/05 04:12:34;;;;;;;5.10;3.20;;;10.50;72.10;;;;;;5037339;28;20061;-60
2022/10/05 04:15:07;;;;;;;8.25;3.20;;;10.50;73.20;;;;;;5045895;28;20089;-59
2022/10/05 04:17:41;;;;;;;10.15;2.92;;;10.50;72.50;;;;;;5025670;28;20022;-59
2022/10/05 04:20:16;;;;;;;4.00;3.30;;;10.50;72.40;;;;;;5026159;28;20042;-59
2022/10/05 04:23:02;;;;;;;9.00;3.63;;;10.50;72.80;;;;;;5034010;28;20512;-60
2022/10/05 04:25:50;;;;;;;21.63;3.85;;;10.50;72.50;;;;;;5039829;28;20042;-59
2022/10/05 04:28:22;;;;;;;44.28;3.97;;;10.50;73.80;;;;;;5045186;28;20114;-59
2022/10/05 04:30:51;;;;;;;52.15;3.53;;;10.50;72.10;;;;;;5025971;28;20134;-60
2022/10/05 04:33:16;;;;;;;33.70;3.90;;;10.50;72.00;;;;;;5051546;28;20566;-60
2022/10/05 04:36:09;;;;;;;15.60;3.25;;;10.50;71.90;;;;;;5065030;28;20096;-60
2022/10/05 04:38:47;;;;;;;15.65;3.00;;;10.40;72.60;;;;;;5064803;28;20196;-60
2022/10/05 04:41:25;;;;;;;14.70;2.88;;;10.40;72.20;;;;;;5067742;28;20036;-60
2022/10/05 04:44:00;;;;;;;16.20;2.75;;;10.40;72.60;;;;;;5106092;28;20052;-59
2022/10/05 04:46:50;;;;;;;22.77;2.80;;;10.30;72.10;;;;;;5066651;28;20029;-60
2022/10/05 04:49:43;;;;;;;4.13;2.47;;;10.30;72.50;;;;;;5090261;28;20528;-61
2022/10/05 04:52:23;;;;;;;23.08;2.90;;;10.30;72.80;;;;;;5090243;28;20411;-59
2022/10/05 04:55:08;;;;;;;12.07;2.83;;;10.30;72.40;;;;;;5108013;28;20024;-59
2022/10/05 04:57:43;;;;;;;14.00;3.20;;;10.20;72.60;;;;;;5073172;28;20029;-61
2022/10/05 05:00:24;;;;;;;7.53;3.17;;;10.20;72.20;;;;;;5067411;28;20040;-59
2022/10/05 05:03:08;;;;;;;11.00;3.17;;;10.20;72.40;;;;;;5083780;28;20115;-59
2022/10/05 05:06:00;;;;;;;9.90;3.72;;;10.20;72.40;;;;;;5067815;28;20084;-58
2022/10/05 05:08:35;;;;;;;7.88;3.75;;;10.20;72.60;;;;;;5103107;28;20028;-59
2022/10/05 05:11:17;;;;;;;15.98;3.92;;;10.20;72.50;;;;;;5097204;28;20052;-59
2022/10/05 05:14:13;;;;;;;13.55;3.80;;;10.20;72.60;;;;;;5084380;28;20078;-58
2022/10/05 05:16:41;;;;;;;41.40;4.75;;;10.10;73.00;;;;;;5066052;28;20045;-59
2022/10/05 05:19:31;;;;;;;15.90;4.38;;;10.10;72.00;;;;;;5104737;28;20032;-60
2022/10/05 05:22:10;;;;;;;42.72;4.80;;;10.10;72.70;;;;;;5066108;28;20116;-60
2022/10/05 05:25:17;;;;;;;26.10;4.15;;;10.10;72.20;;;;;;5070205;28;20040;-60
2022/10/05 05:28:18;;;;;;;16.48;4.68;;;10.10;73.10;;;;;;5072969;28;20025;-59
2022/10/05 05:31:11;;;;;;;11.25;4.30;;;10.00;72.40;;;;;;5071714;28;20130;-60
2022/10/05 05:33:39;;;;;;;13.15;4.93;;;10.00;72.60;;;;;;5098903;28;20036;-59
2022/10/05 05:36:37;;;;;;;27.20;4.93;;;10.00;72.60;;;;;;5087355;28;20090;-60
2022/10/05 05:39:24;;;;;;;30.35;4.93;;;10.00;73.00;;;;;;5082674;28;20045;-59
2022/10/05 05:42:21;;;;;;;35.85;6.00;;;10.00;72.20;;;;;;5075916;28;20056;-59
2022/10/05 05:44:53;;;;;;;27.92;5.72;;;10.00;72.60;;;;;;5066730;28;20033;-59
2022/10/05 05:47:23;;;;;;;17.92;5.80;;;9.90;72.10;;;;;;5099227;28;20084;-59
2022/10/05 05:49:57;;;;;;;17.55;4.75;;;9.90;72.20;;;;;;5106309;28;20059;-59
2022/10/05 05:52:44;;;;;;;11.98;4.63;;;9.90;72.70;;;;;;5068907;28;20127;-59
2022/10/05 05:55:24;;;;;;;20.27;4.70;;;9.90;73.50;;;;;;5086131;28;20044;-61
2022/10/05 05:57:57;;;;;;;17.35;4.93;;;9.90;73.90;;;;;;5079312;28;20046;-59
2022/10/05 06:00:28;;;;;;;30.40;4.95;;;9.90;73.30;;;;;;5106916;28;20149;-59
2022/10/05 06:03:13;;;;;;;11.02;4.40;;;9.90;73.30;;;;;;5073195;28;20025;-58
2022/10/05 06:05:44;;;;;;;11.77;4.47;;;9.90;74.10;;;;;;5078502;28;20034;-59
2022/10/05 06:08:22;;;;;;;6.15;4.43;;;9.90;73.50;;;;;;5084007;28;20058;-60
2022/10/05 06:10:50;;;;;;;8.30;4.47;;;10.00;74.00;;;;;;5066245;28;20399;-59
2022/10/05 06:13:42;;;;;;;7.53;4.70;;;10.00;73.60;;;;;;5104702;28;20032;-61
2022/10/05 06:16:21;;;;;;;12.77;4.68;;;10.10;74.80;;;;;;5065812;28;20044;-59
2022/10/05 06:19:02;;;;;;;10.82;4.72;;;10.10;74.20;;;;;;5085481;28;20064;-60
2022/10/05 06:21:37;;;;;;;17.65;5.15;;;10.20;73.90;;;;;;5066282;28;20048;-59
2022/10/05 06:24:16;;;;;;;32.10;5.07;;;10.20;73.60;;;;;;5081528;28;20454;-59
2022/10/05 06:27:09;;;;;;;12.32;4.45;;;10.30;73.50;;;;;;5083176;28;20020;-59
2022/10/05 06:30:03;;;;;;;27.15;4.70;;;10.30;74.10;;;;;;5086064;28;20403;-61
2022/10/05 06:32:34;;;;;;;15.63;4.15;;;10.40;74.20;;;;;;5076120;28;20013;-60
2022/10/05 06:35:00;;;;;;;28.98;3.78;;;10.40;73.50;;;;;;5066935;28;20051;-60
2022/10/05 06:38:02;;;;;;;20.67;5.35;;;10.50;73.50;;;;;;5104638;28;20039;-60
2022/10/05 06:40:54;;;;;;;6.38;4.70;;;10.50;74.10;;;;;;5105987;28;20031;-62
2022/10/05 06:43:41;;;;;;;10.40;5.13;;;10.60;74.40;;;;;;5105127;28;20088;-60
2022/10/05 06:46:28;;;;;;;16.50;4.20;;;10.70;73.70;;;;;;5065884;28;20040;-59
2022/10/05 06:49:17;;;;;;;9.73;4.40;;;10.70;73.70;;;;;;5087150;28;20107;-60
2022/10/05 06:52:22;;;;;;;14.45;3.60;;;10.70;73.30;;;;;;5090096;28;20044;-60
2022/10/05 06:55:07;;;;;;;10.38;3.60;;;10.80;73.80;;;;;;5105914;28;20020;-61
2022/10/05 06:58:18;;;;;;;25.67;3.67;;;10.80;73.40;;;;;;5066549;28;20025;-60
2022/10/05 07:00:54;;;;;;;5.70;3.80;;;10.80;73.60;;;;;;5083760;28;20060;-60
2022/10/05 07:03:32;;;;;;;11.70;3.65;;;10.90;73.30;;;;;;5086791;28;20027;-61
2022/10/05 07:06:20;;;;;;;21.40;3.38;;;10.90;73.50;;;;;;5084844;28;20071;-60
2022/10/05 07:09:07;;;;;;;13.63;3.80;;;11.00;73.60;;;;;;5077660;28;20058;-61
2022/10/05 07:11:40;;;;;;;10.00;4.53;;;11.00;73.40;;;;;;5071131;28;20034;-59
2022/10/05 07:14:21;;;;;;;9.35;3.70;;;11.00;73.40;;;;;;5080006;28;20469;-60
2022/10/05 07:17:13;;;;;;;23.83;4.05;;;11.10;73.50;;;;;;5065474;28;20051;-60
2022/10/05 07:20:16;;;;;;;24.30;4.47;;;11.10;74.00;;;;;;5084422;28;20032;-60
2022/10/05 07:23:00;;;;;;;13.68;3.67;;;11.20;73.40;;;;;;5092866;28;20021;-62
2022/10/05 07:25:51;;;;;;;9.50;3.88;;;11.20;73.20;;;;;;5085452;28;20031;-60
2022/10/05 07:28:52;;;;;;;14.43;4.55;;;11.30;73.30;;;;;;5072911;28;20020;-59
2022/10/05 07:31:32;;;;;;;11.45;4.63;;;11.30;73.40;;;;;;5060529;28;20048;-60
2022/10/05 07:34:11;;;;;;;8.63;4.32;;;11.40;73.50;;;;;;5085137;28;20036;-60
2022/10/05 07:39:34;;;;;;;10.32;4.35;;;11.50;73.30;;;;;;5092453;28;20035;-59
2022/10/05 07:42:17;;;;;;;8.38;4.93;;;11.60;73.30;;;;;;5115697;28;20027;-59
2022/10/05 07:44:52;;;;;;;9.38;5.20;;;11.60;73.30;;;;;;5096891;28;20072;-59
2022/10/05 07:47:39;;;;;;;10.90;5.35;;;11.70;73.60;;;;;;5080176;28;20029;-60
2022/10/05 07:50:17;;;;;;;10.88;4.38;;;11.70;73.20;;;;;;5080020;28;20029;-60
2022/10/05 07:52:59;;;;;;;13.85;5.47;;;11.80;73.00;;;;;;5081699;28;20043;-59
2022/10/05 07:55:34;;;;;;;10.50;5.32;;;11.90;72.90;;;;;;5072653;28;20474;-59
2022/10/05 07:58:27;;;;;;;9.18;5.82;;;12.00;72.80;;;;;;5073276;28;20016;-59
2022/10/05 08:01:05;;;;;;;10.88;6.72;;;12.10;73.10;;;;;;5081018;28;20027;-59
2022/10/05 08:03:48;;;;;;;10.32;6.25;;;12.10;72.80;;;;;;5086286;28;20035;-60
2022/10/05 08:06:28;;;;;;;13.70;5.82;;;12.20;73.00;;;;;;5068857;28;20495;-60
2022/10/05 08:09:03;;;;;;;21.25;5.45;;;12.20;73.10;;;;;;5093889;28;20420;-60
2022/10/05 08:11:49;;;;;;;6.95;5.75;;;12.30;72.80;;;;;;5068754;28;20427;-59
2022/10/05 08:14:23;;;;;;;6.60;5.40;;;12.40;73.00;;;;;;5082726;28;20054;-62
2022/10/05 08:16:52;;;;;;;11.50;5.68;;;12.50;73.00;;;;;;5107076;28;20059;-59
2022/10/05 08:19:45;;;;;;;9.13;5.82;;;12.50;72.60;;;;;;5087428;28;20054;-60
2022/10/05 08:22:19;;;;;;;11.85;6.07;;;12.60;72.50;;;;;;5059765;28;20060;-59
2022/10/05 08:25:04;;;;;;;15.25;6.13;;;12.60;72.50;;;;;;5086151;28;20074;-59
2022/10/05 08:27:34;;;;;;;10.07;5.40;;;12.70;72.60;;;;;;5067422;28;20361;-61
2022/10/05 08:30:11;;;;;;;15.07;6.78;;;12.80;72.60;;;;;;5068360;28;20033;-59
2022/10/05 08:32:46;;;;;;;8.40;5.97;;;12.80;73.10;;;;;;5100665;28;20029;-58
2022/10/05 08:35:21;;;;;;;11.90;7.10;;;12.90;72.70;;;;;;5088112;28;20025;-59
2022/10/05 08:37:49;;;;;;;16.88;5.93;;;12.90;72.90;;;;;;5069198;28;20059;-59
2022/10/05 08:40:17;;;;;;;13.02;6.65;;;13.00;72.70;;;;;;5088279;28;20013;-59
2022/10/05 08:43:02;;;;;;;8.55;6.20;;;13.10;72.40;;;;;;5105063;28;20102;-60
2022/10/05 08:45:40;;;;;;;10.82;6.50;;;13.10;72.30;;;;;;5087881;28;20033;-61
2022/10/05 08:48:17;;;;;;;12.57;6.38;;;13.20;72.50;;;;;;5075295;28;20028;-60
2022/10/05 08:51:04;;;;;;;9.32;6.93;;;13.30;72.80;;;;;;5103305;28;20048;-59
2022/10/05 08:53:58;;;;;;;10.27;7.00;;;13.30;72.40;;;;;;5093205;28;20031;-59
2022/10/05 08:56:45;;;;;;;11.07;7.25;;;13.40;72.30;;;;;;5087602;28;20375;-61
2022/10/05 08:59:41;;;;;;;11.35;7.93;;;13.50;72.20;;;;;;5081109;28;20043;-59
2022/10/05 09:02:44;;;;;;;10.07;7.00;;;13.60;71.90;;;;;;5069131;28;20041;-59
2022/10/05 09:05:36;;;;;;;12.57;7.75;;;13.50;72.50;;;;;;5068806;28;20051;-60
2022/10/05 09:08:38;;;;;;;12.13;8.57;;;13.60;72.10;;;;;;5074423;28;20032;-59
2022/10/05 09:11:19;;;;;;;11.93;7.90;;;13.60;72.70;;;;;;5108321;28;20020;-59
2022/10/05 09:14:08;;;;;;;12.73;8.77;;;13.70;72.60;;;;;;5076958;28;20028;-59
2022/10/05 09:16:38;;;;;;;10.80;7.97;;;13.70;74.20;;;;;;5083622;28;20069;-60
2022/10/05 09:19:25;;;;;;;12.25;7.25;;;13.80;73.30;;;;;;5079059;28;20431;-59
2022/10/05 09:21:57;;;;;;;14.13;8.82;;;13.90;73.70;;;;;;5067612;28;20037;-60
2022/10/05 09:24:26;;;;;;;13.45;9.18;;;14.00;73.10;;;;;;5093623;28;20035;-59
2022/10/05 09:27:11;;;;;;;13.38;9.40;;;14.20;72.70;;;;;;5092902;28;20432;-59
2022/10/05 09:30:14;;;;;;;15.18;9.95;;;14.30;72.70;;;;;;5082500;28;20032;-60
2022/10/05 09:33:04;;;;;;;13.80;9.25;;;14.30;73.10;;;;;;5107792;28;20144;-60
2022/10/05 09:35:56;;;;;;;18.65;10.95;;;14.50;73.70;;;;;;5068149;28;20571;-59
2022/10/05 09:38:53;;;;;;;20.05;11.55;;;14.60;73.40;;;;;;5072852;28;20076;-61
2022/10/05 09:42:02;;;;;;;18.83;11.68;;;14.70;72.80;;;;;;5107933;28;20062;-60
2022/10/05 09:45:00;;;;;;;23.45;12.15;;;14.90;73.10;;;;;;5081835;28;20052;-59
2022/10/05 09:47:44;;;;;;;16.77;10.85;;;15.00;72.80;;;;;;5065776;28;20167;-60
2022/10/05 09:50:34;;;;;;;20.63;11.35;;;15.20;72.80;;;;;;5084173;28;20098;-59
2022/10/05 09:53:21;;;;;;;20.13;12.98;;;15.30;72.50;;;;;;5067059;28;20040;-61
2022/10/05 09:56:05;;;;;;;16.98;10.95;;;15.50;72.20;;;;;;5104844;28;20040;-60
2022/10/05 09:59:09;;;;;;;16.70;10.80;;;15.70;72.50;;;;;;5070469;28;20025;-61
2022/10/05 10:01:52;;;;;;;18.15;11.85;;;15.80;72.30;;;;;;5005854;28;20031;-61
2022/10/05 10:05:04;;;;;;;16.42;11.57;;;16.00;71.80;;;;;;5015712;28;20046;-59
2022/10/05 10:08:07;;;;;;;17.63;11.05;;;16.10;71.50;;;;;;5004462;28;20038;-60
2022/10/05 10:11:10;;;;;;;20.52;11.13;;;16.30;70.70;;;;;;5004722;28;20049;-59
2022/10/05 10:14:14;;;;;;;16.95;11.02;;;16.50;71.20;;;;;;5042139;28;20068;-60
2022/10/05 10:16:52;;;;;;;14.27;10.43;;;16.60;70.90;;;;;;5034720;28;20049;-60
2022/10/05 10:19:45;;;;;;;13.75;10.05;;;16.70;70.90;;;;;;5015177;28;20496;-61
2022/10/05 10:22:32;;;;;;;15.00;10.27;;;16.90;70.80;;;;;;5008706;28;20034;-60
2022/10/05 10:25:25;;;;;;;13.23;10.23;;;17.10;71.00;;;;;;4984269;28;20062;-60
2022/10/05 10:28:12;;;;;;;13.68;10.05;;;17.20;70.40;;;;;;4985132;28;20106;-60
2022/10/05 10:30:50;;;;;;;14.70;9.93;;;17.40;69.80;;;;;;5024113;28;20117;-59
2022/10/05 10:33:43;;;;;;;12.93;9.57;;;17.60;70.10;;;;;;5021406;28;20043;-60
2022/10/05 10:36:11;;;;;;;12.38;8.93;;;17.80;69.80;;;;;;5045242;28;20049;-60
2022/10/05 10:39:31;;;;;;;16.48;10.77;;;18.00;69.80;;;;;;5099064;28;20062;-59
2022/10/05 10:42:29;;;;;;;11.63;8.73;;;18.20;69.50;;;;;;5063757;28;20456;-59
2022/10/05 10:45:08;;;;;;;12.27;9.20;;;18.40;69.00;;;;;;5078996;28;20177;-59
2022/10/05 10:47:44;;;;;;;14.68;8.68;;;18.60;68.80;;;;;;5063610;28;20543;-59
2022/10/05 10:50:32;;;;;;;12.40;8.55;;;18.80;68.90;;;;;;5062196;28;20045;-60
2022/10/05 10:53:18;;;;;;;14.20;8.65;;;19.00;68.30;;;;;;5063736;28;20032;-61
2022/10/05 10:56:02;;;;;;;13.45;8.82;;;19.20;68.00;;;;;;5063659;28;20088;-59
2022/10/05 10:58:46;;;;;;;16.00;9.02;;;19.40;67.60;;;;;;5066570;28;20044;-61
2022/10/05 11:01:33;;;;;;;11.20;8.45;;;19.60;67.50;;;;;;5083274;28;20143;-61
2022/10/05 11:04:28;;;;;;;11.95;8.88;;;19.70;66.80;;;;;;5082071;28;20041;-60
2022/10/05 11:06:57;;;;;;;10.70;8.18;;;19.90;66.00;;;;;;4985053;28;20046;-60
2022/10/05 11:09:41;;;;;;;11.23;8.18;;;20.00;66.80;;;;;;4972556;28;20047;-59
2022/10/05 11:12:09;;;;;;;10.52;7.82;;;20.10;66.90;;;;;;4974058;28;20043;-60
2022/10/05 11:15:08;;;;;;;10.43;7.32;;;20.30;67.50;;;;;;4971136;28;20028;-60
2022/10/05 11:17:59;;;;;;;8.52;6.60;;;20.50;66.80;;;;;;4984168;28;20470;-60
2022/10/05 11:20:45;;;;;;;13.82;6.40;;;20.70;66.60;;;;;;4985349;28;20031;-59
2022/10/05 11:24:02;;;;;;;8.50;6.32;;;20.90;66.70;;;;;;4977622;28;20517;-60
2022/10/05 11:26:55;;;;;;;9.48;5.72;;;21.10;65.80;;;;;;4968901;29;20035;-60
2022/10/05 11:29:40;;;;;;;9.85;5.70;;;21.30;64.90;;;;;;4948819;29;20020;-60
2022/10/05 11:32:08;;;;;;;;;;;21.50;63.70;;;;;;4968378;29;20035;-60
2022/10/05 11:34:41;;;;;;;5.03;3.95;;;21.70;64.90;;;;;;4949107;28;19910;-61
2022/10/05 11:37:22;;;;;;;8.68;4.38;;;21.80;64.50;;;;;;4930249;29;20586;-60
2022/10/05 11:40:15;;;;;;;5.22;4.25;;;21.90;63.70;;;;;;4942393;29;20040;-60
2022/10/05 11:42:49;;;;;;;4.85;3.15;;;22.00;62.70;;;;;;4962807;28;20054;-60
2022/10/05 11:45:42;;;;;;;9.00;3.50;;;22.20;62.60;;;;;;5010063;28;20027;-60
2022/10/05 11:48:35;;;;;;;9.18;2.83;;;22.30;61.70;;;;;;4994526;28;20073;-60
2022/10/05 11:51:46;;;;;;;3.60;2.40;;;22.50;60.70;;;;;;5019919;28;20085;-61
2022/10/05 11:54:20;;;;;;;4.65;2.17;;;22.60;61.10;;;;;;5018187;28;20026;-61
2022/10/05 11:56:46;;;;;;;5.20;2.40;;;22.70;60.70;;;;;;5007102;28;20058;-60
2022/10/05 11:59:42;;;;;;;5.20;2.38;;;22.80;61.20;;;;;;5036181;28;20049;-60
2022/10/05 12:02:46;;;;;;;5.80;2.50;;;22.90;60.30;;;;;;4999524;28;20037;-61
2022/10/05 12:05:51;;;;;;;3.63;2.13;;;23.00;59.90;;;;;;5085434;28;20108;-59
2022/10/05 12:08:31;;;;;;;2.63;2.25;;;23.20;58.40;;;;;;5065891;28;20044;-60
2022/10/05 12:11:41;;;;;;;3.17;2.13;;;23.30;58.70;;;;;;5066434;28;20079;-62
2022/10/05 12:14:36;;;;;;;5.63;2.00;;;23.40;58.60;;;;;;5072350;28;20041;-60
2022/10/05 12:17:21;;;;;;;7.28;1.95;;;23.50;58.90;;;;;;5086211;28;20123;-60
2022/10/05 12:19:54;;;;;;;;;;;23.60;57.90;;;;;;5092526;28;20530;-60
2022/10/05 12:22:47;;;;;;;3.00;1.80;;;23.70;59.80;;;;;;5086289;28;19923;-60
2022/10/05 12:25:15;;;;;;;2.92;2.05;;;23.80;57.40;;;;;;5081240;28;20032;-60
2022/10/05 12:27:48;;;;;;;2.72;2.00;;;23.80;58.20;;;;;;5105667;28;20453;-60
2022/10/05 12:30:17;;;;;;;2.70;2.00;;;23.90;58.10;;;;;;5080592;28;20453;-59
2022/10/05 12:32:52;;;;;;;4.85;1.90;;;24.00;58.40;;;;;;5105743;28;20067;-60
2022/10/05 12:35:30;;;;;;;6.97;2.03;;;24.10;57.60;;;;;;5085547;28;20100;-60
2022/10/05 12:38:27;;;;;;;7.25;2.03;;;24.20;57.00;;;;;;5108136;28;20035;-60
2022/10/05 12:41:17;;;;;;;2.85;1.90;;;24.30;56.70;;;;;;5066689;28;20112;-60
2022/10/05 12:43:58;;;;;;;2.85;1.50;;;24.40;56.60;;;;;;5073510;28;20021;-60
2022/10/05 12:46:39;;;;;;;1.88;1.52;;;24.50;55.90;;;;;;5087975;28;20028;-60
2022/10/05 12:49:19;;;;;;;1.58;1.23;;;24.60;56.00;;;;;;5080546;28;20028;-60
2022/10/05 12:51:45;;;;;;;2.80;1.50;;;24.70;56.10;;;;;;5067567;28;20090;-61
2022/10/05 12:54:32;;;;;;;2.03;1.30;;;24.80;56.30;;;;;;5098957;28;20375;-60
2022/10/05 12:57:25;;;;;;;1.30;1.15;;;24.80;55.50;;;;;;5107809;28;20036;-60
2022/10/05 13:00:03;;;;;;;2.60;1.42;;;25.00;54.90;;;;;;5088151;28;20048;-60
2022/10/05 13:02:42;;;;;;;2.53;1.50;;;25.10;54.90;;;;;;5075649;28;20037;-60
2022/10/05 13:05:08;;;;;;;2.05;1.17;;;25.20;54.70;;;;;;5089363;28;20028;-60
2022/10/05 13:07:37;;;;;;;1.05;0.95;;;25.30;54.60;;;;;;5114106;28;20046;-60
2022/10/05 13:10:19;;;;;;;1.30;0.88;;;25.40;54.00;;;;;;5087694;28;20031;-59
2022/10/05 13:13:01;;;;;;;1.55;1.00;;;25.50;53.40;;;;;;5067169;28;20522;-61
2022/10/05 13:15:35;;;;;;;2.47;1.30;;;25.60;53.00;;;;;;5082851;28;20065;-60
2022/10/05 13:18:40;;;;;;;2.28;1.20;;;25.70;53.20;;;;;;5067476;28;20033;-61
2022/10/05 13:21:19;;;;;;;4.35;1.20;;;25.70;52.80;;;;;;5106810;28;20032;-60
2022/10/05 13:24:06;;;;;;;2.22;0.90;;;25.80;52.70;;;;;;5075726;28;20054;-60
2022/10/05 13:26:47;;;;;;;1.10;1.00;;;25.90;53.30;;;;;;5107477;28;20020;-60
2022/10/05 13:29:35;;;;;;;1.75;1.15;;;26.00;52.70;;;;;;5072230;28;20034;-60
2022/10/05 13:32:16;;;;;;;2.13;1.05;;;26.00;52.40;;;;;;5067060;28;20033;-60
2022/10/05 13:35:14;;;;;;;4.90;0.93;;;26.10;52.40;;;;;;5075863;28;20557;-60
2022/10/05 13:38:01;;;;;;;1.58;1.10;;;26.20;52.50;;;;;;5063724;28;20068;-60
2022/10/05 13:40:52;;;;;;;4.18;1.10;;;26.30;52.30;;;;;;5081838;28;20040;-60
2022/10/05 13:43:25;;;;;;;2.40;1.13;;;26.40;52.00;;;;;;5066188;28;20025;-62
2022/10/05 13:46:01;;;;;;;5.00;1.55;;;26.40;51.70;;;;;;5085101;28;20526;-61
2022/10/05 13:49:02;;;;;;;1.77;1.02;;;26.50;51.30;;;;;;5071913;28;20020;-60
2022/10/05 13:51:54;;;;;;;1.92;1.20;;;26.60;51.60;;;;;;5077290;28;20056;-60
2022/10/05 13:54:29;;;;;;;1.63;1.10;;;26.70;51.40;;;;;;5056500;28;20079;-60
2022/10/05 13:57:05;;;;;;;2.25;1.00;;;26.70;50.60;;;;;;5064300;28;20047;-60
2022/10/05 13:59:48;;;;;;;2.70;0.93;;;26.80;51.10;;;;;;5050846;28;20049;-60
2022/10/05 14:02:23;;;;;;;2.13;0.95;;;26.90;50.60;;;;;;5054171;28;20044;-62
2022/10/05 14:04:56;;;;;;;2.38;1.00;;;27.00;51.00;;;;;;5062868;28;20103;-59
2022/10/05 14:07:35;;;;;;;1.20;0.95;;;27.10;50.80;;;;;;5027698;28;20052;-60
2022/10/05 14:10:05;;;;;;;1.15;0.85;;;27.20;49.70;;;;;;5065801;28;20047;-60